Dillon, CO

5:38 PM MDT on August 24, 2016 (GMT -0600)
Braddock Hill, Highlands | | Change Station

Elev 9324 ft 39.54 °N, 106.04 °W | Updated 9 minutes ago

Mostly Cloudy
Mostly Cloudy
56.8 °F
Feels Like 56.8 °F
N
1.0
Wind Variable Wind from West
Gusts 3.0 mph

Today
High -- | Low -- °F
--% Chance of Precip.
Yesterday
High -- | Low -- °F
Precip. -- in
Pressure 30.00 in
Visibility 10.0 miles
Clouds Few 4500 ft
Mostly Cloudy 7500 ft
Mostly Cloudy 9000 ft
Dew Point 43 °F
Humidity 61%
Rainfall 0.12 in
Snow Depth Not available.
6:25 AM 7:46 PM
Waning Gibbous, 52% visible
METAR KLXV 242253Z AUTO 02009G15KT 10SM FEW045 BKN075 BKN090 12/02 A3039 RMK AO2 WSHFT 2225 RAB29E41 SLP157 P0000 T01220017 $
Pressure 30.00 in
Visibility 10.0 miles
Clouds Few 4500 ft
Mostly Cloudy 7500 ft
Mostly Cloudy 9000 ft
Dew Point 43 °F
Humidity 61%
Rainfall 0.12 in
Snow Depth Not available.
6:25 AM 7:46 PM
Waning Gibbous, 52% visible
METAR KLXV 242253Z AUTO 02009G15KT 10SM FEW045 BKN075 BKN090 12/02 A3039 RMK AO2 WSHFT 2225 RAB29E41 SLP157 P0000 T01220017 $

10-Day Weather Forecast

Almanac

Astronomy

Aug. 24, 2016 Rise Set
Actual Time
Civil Twilight
Nautical Twilight
Astronomical Twilight
Moon
Length of Visible Light
Length of Day
Tomorrow will be .
, % of the Moon is Illuminated

Today's Extremes

State Highs State Lows

Community

WunderPhotos

Upload Photos

1,934,738 photos uploaded!

WunderBlog® & News

Nearby

Air Quality

  Air Quality AQ Index Pollutant
Not available.

Snow Depth

Station Depth Elevation

Earthquake Activity

City Distance Mag. Time & Date
Minimum magnitude displayed is 2.5.

Coastal Water Temperatures

Place Temperature

Stations

Nearby Weather Stations

Station Location Temp. Windchill Dew Point Humidity Wind Precip. Elev Updated Type
                   

Watches & Warnings

There are currently no watches in effect.